Airfield :
LOGIN :

Register | Disclaimer

   EN    FR    IT 

 










Legend :    VFR   Marginal VFR   IFR   Intensive IFR   Very Intensive IFR
Visi :
Ceiling :
>= 8 km
>= 3000ft
5 to 8 km
1000 to 3000 ft
1500m to 5 km
500 to 1000 ft
800 to 1500m
200 to 500 ft
< 800m
< 200 ft
Symbols :   Thunderstorms  Fog  Heavy snow  Heavy precipitations  Wind > 20 kt
SIGMETs :     Misc.  Thunderstorms  Icing  Turbulence  Mountain Waves  Volcanic Ashes







- Airport Elevation : 1302 ft
- IATA code : GNB
- Download approach charts


LFLS - Grenoble / St. Geoirs

CURRENT METAR :
  • 222030Z AUTO 11003KT CAVOK 11/08 Q1022

EXPIRED METARs :
  • 222000Z AUTO 14004KT CAVOK 13/09 Q1022
  • 221930Z AUTO 11003KT CAVOK 13/08 Q1022
  • 221900Z AUTO 10003KT 030V130 CAVOK 14/10 Q1022 NOSIG
  • 221830Z AUTO 13003KT CAVOK 16/09 Q1022 NOSIG
  • 221800Z AUTO 03004KT 360V060 CAVOK 18/08 Q1021 NOSIG

TAF TAF LFLS
Valid from the 22 at 15:00 until the 23 at 15:00 UTC


221400Z 2215/2315 VRB05KT CAVOK
ATIS : +33 4 76 65 55 89
No reported NOTAMs for that airfield.



MET'MAP, your aeronautical weather chart ! - Copyright ORBIFLY December 2007 - Disclaimer

ORBIFLY MET'MAP TEAM :

Programming & Development : Alexandra Zaïnal
Concept & Development : Baudouin d'Aumeries
Co-Development & Prog : Marc-Olivier Méhu
Technical & hardware support : Manuel Goepfert

Contact : metmap@orbifly.com




SOURCES & CREDITS :

   NOAA